Time;durP1;ratioP1;P1;durP2;ratioP2;P2;SDS_P1;SDS_P2;PMS_P1;PMS_P2;Temp;Humidity;BMP_temperature;BMP_pressure;BME280_temperature;BME280_humidity;BME280_pressure;Samples;Min_cycle;Max_cycle;Signal;HPM_P1;HPM_P2
2023/03/03 07:07:16;;;;;;;0.20;0.20;;;0.70;99.90;230.40;231737.00;;;;5110865;27;20539;-77
2023/03/03 07:09:45;;;;;;;0.20;0.20;;;0.60;99.90;230.40;231737.00;;;;5094307;28;20241;-77
2023/03/03 07:12:21;;;;;;;0.20;0.20;;;0.60;99.90;230.40;231737.00;;;;5083306;28;20663;-76
2023/03/03 07:14:54;;;;;;;0.20;0.20;;;0.60;99.90;230.40;231737.00;;;;5087530;28;20196;-76
2023/03/03 07:17:25;;;;;;;0.20;0.20;;;0.70;99.90;230.40;231737.00;;;;5088798;28;20236;-76
2023/03/03 07:19:54;;;;;;;0.17;0.17;;;0.70;99.90;230.40;231737.00;;;;5088488;28;20220;-76
2023/03/03 07:22:29;;;;;;;0.10;0.10;;;0.80;99.90;230.40;231737.00;;;;5085652;28;20205;-76
2023/03/03 07:25:01;;;;;;;0.20;0.20;;;0.80;99.90;230.40;231737.00;;;;5085618;28;20196;-77
2023/03/03 07:27:31;;;;;;;0.13;0.13;;;0.90;99.90;230.40;231737.00;;;;5085721;28;20193;-76
2023/03/03 07:30:23;;;;;;;0.15;0.15;;;0.90;99.90;230.40;231737.00;;;;5084009;28;20721;-75
2023/03/03 07:32:55;;;;;;;0.10;0.10;;;0.90;99.90;230.40;231737.00;;;;5084072;28;20205;-75
2023/03/03 07:35:37;;;;;;;0.10;0.10;;;1.00;99.90;230.40;231737.00;;;;5086179;28;20204;-75
2023/03/03 07:38:24;;;;;;;0.20;0.20;;;1.00;99.90;230.40;231737.00;;;;5083797;28;20193;-74
2023/03/03 07:40:55;;;;;;;0.15;0.15;;;1.10;99.90;230.40;231737.00;;;;5100277;28;20297;-74
2023/03/03 07:43:34;;;;;;;0.20;0.20;;;1.10;99.90;230.40;231737.00;;;;5085823;28;20218;-75
2023/03/03 07:46:22;;;;;;;0.10;0.10;;;1.10;99.90;230.40;231737.00;;;;5083419;28;20243;-75
2023/03/03 07:48:52;;;;;;;0.10;0.10;;;1.10;99.90;230.40;231737.00;;;;5085974;28;20411;-74
2023/03/03 07:51:26;;;;;;;0.10;0.10;;;1.10;99.90;230.40;231737.00;;;;5085702;28;20203;-73
2023/03/03 07:54:17;;;;;;;0.10;0.10;;;1.20;99.90;230.40;231737.00;;;;5094304;28;20902;-75
2023/03/03 07:56:46;;;;;;;0.10;0.10;;;1.20;99.90;230.40;231737.00;;;;5093177;28;20201;-74
2023/03/03 07:59:22;;;;;;;0.20;0.20;;;1.20;99.90;230.40;231737.00;;;;5082711;28;20212;-75
2023/03/03 08:01:54;;;;;;;0.20;0.20;;;1.20;99.90;230.40;231737.00;;;;5088008;28;20254;-75
2023/03/03 08:04:29;;;;;;;0.10;0.10;;;1.10;99.90;230.40;231737.00;;;;5081992;28;20246;-74
2023/03/03 08:07:00;;;;;;;0.10;0.10;;;1.10;99.90;230.40;231737.00;;;;5094587;28;20224;-74
2023/03/03 08:09:46;;;;;;;0.10;0.10;;;1.10;99.90;230.40;231737.00;;;;5082440;28;20617;-75
2023/03/03 08:12:38;;;;;;;0.10;0.10;;;1.20;99.90;230.40;231737.00;;;;5084515;28;20200;-75
2023/03/03 08:15:31;;;;;;;0.10;0.10;;;1.20;99.90;230.40;231737.00;;;;5096218;28;20217;-75
2023/03/03 08:18:01;;;;;;;0.10;0.10;;;1.30;99.90;230.40;231737.00;;;;5082017;28;20209;-73
2023/03/03 08:20:47;;;;;;;0.10;0.10;;;1.30;99.90;230.40;231737.00;;;;5082887;28;20748;-74
2023/03/03 08:23:18;;;;;;;0.17;0.17;;;1.40;99.90;230.40;231737.00;;;;5072481;28;20193;-74
2023/03/03 08:25:50;;;;;;;0.20;0.20;;;1.50;99.90;230.40;231737.00;;;;5070430;28;20214;-74
2023/03/03 08:28:18;;;;;;;0.10;0.10;;;1.50;99.90;230.40;231737.00;;;;5077608;28;20358;-74
2023/03/03 08:30:48;;;;;;;0.20;0.20;;;1.50;99.90;230.40;231737.00;;;;5090749;28;20551;-74
2023/03/03 08:33:17;;;;;;;0.10;0.10;;;1.50;99.90;230.40;231737.00;;;;5087047;28;20203;-74
2023/03/03 08:35:46;;;;;;;0.10;0.10;;;1.50;99.90;230.40;231737.00;;;;5081913;28;20223;-74
2023/03/03 08:38:17;;;;;;;0.10;0.10;;;1.50;99.90;230.40;231737.00;;;;5066577;28;20288;-73
2023/03/03 08:40:47;;;;;;;0.10;0.10;;;1.40;99.90;230.40;231737.00;;;;5079494;28;20185;-74
2023/03/03 08:43:20;;;;;;;0.10;0.10;;;1.40;99.90;230.40;231737.00;;;;5069389;28;20198;-74
2023/03/03 08:45:50;;;;;;;0.10;0.10;;;1.50;99.90;230.40;231737.00;;;;5083836;28;20316;-74
2023/03/03 08:48:20;;;;;;;0.10;0.10;;;1.40;99.90;230.40;231737.00;;;;5072449;28;20628;-73
2023/03/03 08:50:48;;;;;;;0.20;0.20;;;1.40;99.90;230.40;231737.00;;;;5077659;28;20194;-74
2023/03/03 08:53:18;;;;;;;0.10;0.10;;;1.40;99.90;230.40;231737.00;;;;5070293;28;20250;-74
2023/03/03 08:55:48;;;;;;;0.13;0.13;;;1.30;99.90;230.40;231737.00;;;;5073391;28;20221;-74
2023/03/03 08:58:19;;;;;;;0.10;0.10;;;1.30;99.90;230.40;231737.00;;;;5075675;28;20663;-74
2023/03/03 09:00:52;;;;;;;0.10;0.10;;;1.30;99.90;230.40;231737.00;;;;5080844;28;20652;-74
2023/03/03 09:03:20;;;;;;;0.20;0.20;;;1.30;99.90;230.40;231737.00;;;;5069365;28;20199;-73
2023/03/03 09:05:48;;;;;;;0.10;0.10;;;1.30;99.90;230.40;231737.00;;;;5081887;28;20205;-74
2023/03/03 09:08:16;;;;;;;0.10;0.10;;;1.40;99.90;230.40;231737.00;;;;5075310;28;20224;-74
2023/03/03 09:10:44;;;;;;;0.10;0.10;;;1.50;99.90;230.40;231737.00;;;;5069607;28;20201;-74
2023/03/03 09:13:17;;;;;;;0.10;0.10;;;1.50;99.90;230.40;231737.00;;;;5073074;28;20197;-74
2023/03/03 09:15:47;;;;;;;0.10;0.10;;;1.50;99.90;230.40;231737.00;;;;5068494;28;20662;-74
2023/03/03 09:18:21;;;;;;;0.10;0.10;;;1.40;99.90;230.40;231737.00;;;;5071828;28;20722;-74
2023/03/03 09:20:51;;;;;;;0.10;0.10;;;1.40;99.90;230.40;231737.00;;;;5069236;28;20263;-73
2023/03/03 09:23:32;;;;;;;0.10;0.10;;;1.40;99.90;230.40;231737.00;;;;5079361;28;20721;-73
2023/03/03 09:26:25;;;;;;;0.10;0.10;;;1.50;99.90;230.40;231737.00;;;;5078571;28;20707;-74
2023/03/03 09:29:00;;;;;;;0.10;0.10;;;1.50;99.90;230.40;231737.00;;;;5072492;28;20218;-74
2023/03/03 09:31:40;;;;;;;0.10;0.10;;;1.60;99.90;230.40;231737.00;;;;5097763;28;20678;-74
2023/03/03 09:34:23;;;;;;;0.10;0.10;;;1.70;99.90;230.40;231737.00;;;;5072852;28;20532;-73
2023/03/03 09:36:53;;;;;;;0.10;0.10;;;1.70;99.90;230.40;231737.00;;;;5070664;28;20660;-73
2023/03/03 09:39:24;;;;;;;0.10;0.10;;;1.70;99.90;230.40;231737.00;;;;5082636;28;20209;-75
2023/03/03 09:42:29;;;;;;;0.10;0.10;;;1.70;99.90;230.40;231737.00;;;;5071855;28;20194;-73
2023/03/03 09:45:39;;;;;;;0.10;0.10;;;1.70;99.90;230.40;231737.00;;;;5085642;28;20213;-74
2023/03/03 09:48:42;;;;;;;0.10;0.10;;;1.60;99.90;230.40;231737.00;;;;5073905;28;20627;-73
2023/03/03 09:51:38;;;;;;;0.10;0.10;;;1.60;99.90;230.40;231737.00;;;;5079507;28;20542;-73
2023/03/03 09:54:23;;;;;;;0.20;0.20;;;1.60;99.90;230.40;231737.00;;;;5071635;28;20711;-74
2023/03/03 09:57:04;;;;;;;0.20;0.20;;;1.70;99.90;230.40;231737.00;;;;5068480;28;20205;-75
2023/03/03 09:59:55;;;;;;;0.10;0.10;;;1.70;99.90;230.40;231737.00;;;;5071062;28;20224;-73
2023/03/03 10:02:41;;;;;;;0.10;0.10;;;1.70;99.90;230.40;231737.00;;;;5071853;28;20213;-74
2023/03/03 10:05:38;;;;;;;0.10;0.10;;;1.70;99.90;230.40;231737.00;;;;5072421;28;20288;-74
2023/03/03 10:08:28;;;;;;;0.10;0.10;;;1.70;99.90;230.40;231737.00;;;;5080439;28;20622;-74
2023/03/03 10:11:10;;;;;;;0.15;0.15;;;1.80;99.90;230.40;231737.00;;;;5082427;28;20748;-74
2023/03/03 10:14:13;;;;;;;0.10;0.10;;;1.80;99.90;230.40;231737.00;;;;5074752;28;20447;-74
2023/03/03 10:17:03;;;;;;;0.10;0.10;;;1.80;99.90;230.40;231737.00;;;;5065485;28;20490;-74
2023/03/03 10:19:40;;;;;;;0.10;0.10;;;1.80;99.90;230.40;231737.00;;;;5070350;28;20229;-74
2023/03/03 10:22:23;;;;;;;0.10;0.10;;;1.80;99.90;230.40;231737.00;;;;5075049;28;20197;-74
2023/03/03 10:25:07;;;;;;;0.10;0.10;;;1.80;99.90;230.40;231737.00;;;;5070707;28;20205;-73
2023/03/03 10:27:56;;;;;;;0.10;0.10;;;1.80;99.90;230.40;231737.00;;;;5071029;28;20532;-73
2023/03/03 10:30:41;;;;;;;0.10;0.10;;;1.80;99.90;230.40;231737.00;;;;5070203;28;20193;-74
2023/03/03 10:33:43;;;;;;;0.10;0.10;;;1.90;99.90;230.40;231737.00;;;;5076806;28;20243;-74
2023/03/03 10:36:32;;;;;;;0.10;0.10;;;1.90;99.90;230.40;231737.00;;;;5071224;28;20246;-74
2023/03/03 10:39:29;;;;;;;0.10;0.10;;;1.90;99.90;230.40;231737.00;;;;5078034;28;20222;-74
2023/03/03 10:42:14;;;;;;;0.10;0.10;;;1.90;99.90;230.40;231737.00;;;;5075013;28;20259;-73
2023/03/03 10:45:11;;;;;;;0.10;0.10;;;1.90;99.90;230.40;231737.00;;;;5076549;28;20198;-73
2023/03/03 10:48:05;;;;;;;0.10;0.10;;;2.00;99.90;230.40;231737.00;;;;5075120;28;20217;-74
2023/03/03 10:50:49;;;;;;;0.10;0.10;;;1.80;99.90;230.40;231737.00;;;;5080096;28;20205;-74
2023/03/03 10:53:29;;;;;;;0.10;0.10;;;1.90;99.90;230.40;231737.00;;;;5079198;28;20204;-74
2023/03/03 10:56:34;;;;;;;0.10;0.10;;;1.90;99.90;230.40;231737.00;;;;5075450;28;20235;-74
2023/03/03 10:59:44;;;;;;;0.10;0.10;;;2.00;99.90;230.40;231737.00;;;;5061507;28;20232;-75
2023/03/03 11:02:23;;;;;;;0.20;0.20;;;2.10;99.90;230.40;231737.00;;;;5083379;28;20647;-74
2023/03/03 11:05:18;;;;;;;0.10;0.10;;;2.20;99.90;230.40;231737.00;;;;5059964;28;20209;-74
2023/03/03 11:07:52;;;;;;;0.10;0.10;;;2.20;99.90;230.40;231737.00;;;;5073024;28;20271;-74
2023/03/03 11:10:54;;;;;;;0.10;0.10;;;2.20;99.90;230.40;231737.00;;;;5081529;28;20212;-74
2023/03/03 11:13:38;;;;;;;0.10;0.10;;;2.20;99.90;230.40;231737.00;;;;5065996;28;20197;-73
2023/03/03 11:16:22;;;;;;;0.20;0.20;;;2.10;99.90;230.40;231737.00;;;;5079024;28;20680;-74
2023/03/03 11:19:11;;;;;;;0.10;0.10;;;2.00;99.90;230.40;231737.00;;;;5071881;28;20276;-74
2023/03/03 11:21:50;;;;;;;0.10;0.10;;;2.00;99.90;230.40;231737.00;;;;5077086;28;20197;-73
2023/03/03 11:24:46;;;;;;;0.10;0.10;;;2.00;99.90;230.40;231737.00;;;;5069522;28;20205;-74
2023/03/03 11:27:35;;;;;;;0.10;0.10;;;2.10;99.90;230.40;231737.00;;;;5078344;28;20695;-72
2023/03/03 11:30:35;;;;;;;0.15;0.15;;;2.20;99.90;230.40;231737.00;;;;5074284;28;20687;-74
2023/03/03 11:33:09;;;;;;;0.10;0.10;;;2.20;99.90;230.40;231737.00;;;;5081686;28;20486;-74
2023/03/03 11:35:47;;;;;;;0.10;0.10;;;2.30;99.90;230.40;231737.00;;;;5069432;28;20210;-73
2023/03/03 11:38:37;;;;;;;0.20;0.20;;;2.20;99.90;230.40;231737.00;;;;5069440;28;20207;-74
2023/03/03 11:41:21;;;;;;;0.10;0.10;;;2.20;99.90;230.40;231737.00;;;;5074094;28;20259;-74
2023/03/03 11:43:57;;;;;;;0.10;0.10;;;2.20;99.90;230.40;231737.00;;;;5072207;28;20240;-74
2023/03/03 11:46:32;;;;;;;0.10;0.10;;;2.20;99.90;230.40;231737.00;;;;5071164;28;20198;-74
2023/03/03 11:49:06;;;;;;;0.10;0.10;;;2.10;99.90;230.40;231737.00;;;;5079057;28;20224;-73
2023/03/03 11:51:48;;;;;;;0.10;0.10;;;2.20;99.90;230.40;231737.00;;;;5071928;28;20730;-74
2023/03/03 11:54:23;;;;;;;0.10;0.10;;;2.10;99.90;230.40;231737.00;;;;5087029;28;20204;-74
2023/03/03 11:57:05;;;;;;;0.20;0.20;;;2.00;99.90;230.40;231737.00;;;;5073909;28;20608;-74
2023/03/03 11:59:58;;;;;;;0.20;0.20;;;2.10;99.90;230.40;231737.00;;;;5067390;28;20217;-73
2023/03/03 12:02:47;;;;;;;0.10;0.10;;;2.10;99.90;230.40;231737.00;;;;5073291;28;20205;-73
2023/03/03 12:05:37;;;;;;;0.10;0.10;;;2.00;99.90;230.40;231737.00;;;;5083946;28;20207;-74
2023/03/03 12:08:22;;;;;;;0.10;0.10;;;2.00;99.90;230.40;231737.00;;;;5079187;28;20251;-74
2023/03/03 12:11:03;;;;;;;0.10;0.10;;;1.90;99.90;230.40;231737.00;;;;5083986;28;20209;-74
2023/03/03 12:13:49;;;;;;;0.10;0.10;;;1.90;99.90;230.40;231737.00;;;;5075381;28;20198;-74
2023/03/03 12:16:38;;;;;;;0.10;0.10;;;2.00;99.90;230.40;231737.00;;;;5073279;28;20568;-73
2023/03/03 12:19:28;;;;;;;0.10;0.10;;;1.90;99.90;230.40;231737.00;;;;5079519;28;20221;-74
2023/03/03 12:22:11;;;;;;;0.10;0.10;;;1.90;99.90;230.40;231737.00;;;;5083822;28;20270;-74
2023/03/03 12:25:17;;;;;;;0.10;0.10;;;1.90;99.90;230.40;231737.00;;;;5083364;28;20205;-74
2023/03/03 12:27:56;;;;;;;0.10;0.10;;;2.00;99.90;230.40;231737.00;;;;5078014;28;20691;-75
2023/03/03 12:30:48;;;;;;;0.10;0.10;;;2.10;99.90;230.40;231737.00;;;;5071264;28;20599;-75
2023/03/03 12:33:29;;;;;;;0.20;0.20;;;2.10;99.90;230.40;231737.00;;;;5073532;28;20200;-75
2023/03/03 12:36:18;;;;;;;0.10;0.10;;;2.00;99.90;230.40;231737.00;;;;5078410;28;20212;-75
2023/03/03 12:38:57;;;;;;;0.10;0.10;;;1.90;99.90;230.40;231737.00;;;;5080647;28;20228;-75
2023/03/03 12:41:35;;;;;;;0.10;0.10;;;2.00;99.90;230.40;231737.00;;;;5073227;28;20209;-74
2023/03/03 12:44:15;;;;;;;0.10;0.10;;;2.00;99.90;230.40;231737.00;;;;5085776;28;20203;-74
2023/03/03 12:46:54;;;;;;;0.10;0.10;;;2.10;99.90;230.40;231737.00;;;;5068367;28;20527;-75
2023/03/03 12:49:32;;;;;;;0.10;0.10;;;2.00;99.90;230.40;231737.00;;;;5079554;22;20321;-69
2023/03/03 12:52:25;;;;;;;0.10;0.10;;;2.00;99.90;230.40;231737.00;;;;5034619;28;20203;-70
2023/03/03 12:55:10;;;;;;;0.10;0.10;;;2.10;99.90;230.40;231737.00;;;;5035522;28;20596;-69
2023/03/03 12:57:53;;;;;;;0.10;0.10;;;2.10;99.90;230.40;231737.00;;;;5031525;28;20678;-70
2023/03/03 13:00:44;;;;;;;0.10;0.10;;;2.10;99.90;230.40;231737.00;;;;5029412;28;20238;-69
2023/03/03 13:03:28;;;;;;;0.10;0.10;;;2.00;99.90;230.40;231737.00;;;;5030616;28;20195;-69
2023/03/03 13:06:10;;;;;;;0.10;0.10;;;2.00;99.90;230.40;231737.00;;;;5031142;28;20211;-70
2023/03/03 13:09:01;;;;;;;0.10;0.10;;;2.00;99.90;230.40;231737.00;;;;5035718;28;20233;-70
2023/03/03 13:11:55;;;;;;;0.10;0.10;;;2.10;99.90;230.40;231737.00;;;;5030834;28;20559;-69
2023/03/03 13:14:35;;;;;;;0.10;0.10;;;2.10;99.90;230.40;231737.00;;;;5027467;28;20211;-70
2023/03/03 13:17:19;;;;;;;0.10;0.10;;;2.00;99.90;230.40;231737.00;;;;5035334;28;20202;-69
2023/03/03 13:19:54;;;;;;;0.10;0.10;;;2.00;99.90;230.40;231737.00;;;;5034844;28;20237;-72
2023/03/03 13:22:38;;;;;;;0.10;0.10;;;2.10;99.90;230.40;231737.00;;;;5026969;28;20299;-69
2023/03/03 13:25:43;;;;;;;0.10;0.10;;;1.90;99.90;230.40;231737.00;;;;5029917;28;20252;-73
2023/03/03 13:28:26;;;;;;;0.10;0.10;;;1.90;99.90;230.40;231737.00;;;;5035912;28;20329;-70
2023/03/03 13:31:05;;;;;;;0.10;0.10;;;1.90;99.90;230.40;231737.00;;;;5028280;28;20199;-70
2023/03/03 13:33:36;;;;;;;0.10;0.10;;;1.90;99.90;230.40;231737.00;;;;5030243;28;20209;-70
2023/03/03 13:36:10;;;;;;;0.20;0.20;;;1.90;99.90;230.40;231737.00;;;;5034322;28;20318;-70
2023/03/03 13:38:47;;;;;;;0.10;0.10;;;1.90;99.90;230.40;231737.00;;;;5033851;28;20306;-69
2023/03/03 13:41:23;;;;;;;0.10;0.10;;;1.90;99.90;230.40;231737.00;;;;5032658;28;20237;-69
2023/03/03 13:43:59;;;;;;;0.10;0.10;;;1.90;99.90;230.40;231737.00;;;;5033882;28;20230;-70
2023/03/03 13:46:42;;;;;;;0.10;0.10;;;1.90;99.90;230.40;231737.00;;;;5034631;28;20570;-70
2023/03/03 13:49:47;;;;;;;0.20;0.20;;;1.90;99.90;230.40;231737.00;;;;5031385;28;20227;-70
2023/03/03 13:52:23;;;;;;;0.10;0.10;;;1.90;99.90;230.40;231737.00;;;;5028943;28;20643;-70
2023/03/03 13:55:16;;;;;;;0.10;0.10;;;1.80;99.90;230.40;231737.00;;;;5034417;28;20536;-70
2023/03/03 13:58:00;;;;;;;0.13;0.13;;;1.70;99.90;230.40;231737.00;;;;5029599;28;20233;-70
2023/03/03 14:00:49;;;;;;;0.20;0.20;;;1.70;99.90;230.40;231737.00;;;;5031628;28;20226;-70
2023/03/03 14:03:43;;;;;;;0.13;0.13;;;1.70;99.90;230.40;231737.00;;;;5032382;28;20292;-70
2023/03/03 14:06:16;;;;;;;0.10;0.10;;;1.80;99.90;230.40;231737.00;;;;5034601;28;20195;-69
2023/03/03 14:09:21;;;;;;;0.10;0.10;;;1.80;99.90;230.40;231737.00;;;;5033658;28;20290;-69
2023/03/03 14:12:00;;;;;;;0.10;0.10;;;1.80;99.90;230.40;231737.00;;;;5032100;28;20708;-70
2023/03/03 14:14:46;;;;;;;0.10;0.10;;;1.80;99.90;230.40;231737.00;;;;5028089;28;20309;-69
2023/03/03 14:17:27;;;;;;;0.10;0.10;;;1.80;99.90;230.40;231737.00;;;;5034315;28;20199;-70
2023/03/03 14:20:11;;;;;;;0.10;0.10;;;1.80;99.90;230.40;231737.00;;;;5028697;28;20616;-70
2023/03/03 14:22:51;;;;;;;0.10;0.10;;;1.80;99.90;230.40;231737.00;;;;5030441;28;20659;-70
2023/03/03 14:25:19;;;;;;;0.10;0.10;;;1.80;99.90;230.40;231737.00;;;;5038457;28;20674;-71
2023/03/03 14:28:12;;;;;;;0.10;0.10;;;1.80;99.90;230.40;231737.00;;;;5033468;28;20217;-70
2023/03/03 14:30:42;;;;;;;0.10;0.10;;;1.80;99.90;230.40;231737.00;;;;5029988;28;20223;-71
2023/03/03 14:33:26;;;;;;;0.10;0.10;;;1.80;99.90;230.40;231737.00;;;;5034115;28;20199;-71
2023/03/03 14:36:11;;;;;;;0.10;0.10;;;1.80;99.90;230.40;231737.00;;;;5049021;28;20203;-70
2023/03/03 14:38:50;;;;;;;0.10;0.10;;;1.80;99.90;230.40;231737.00;;;;5030937;28;20214;-70
2023/03/03 14:41:36;;;;;;;0.10;0.10;;;1.70;99.90;230.40;231737.00;;;;5020719;28;20205;-69
2023/03/03 14:44:28;;;;;;;0.10;0.10;;;1.70;99.90;230.40;231737.00;;;;5027243;28;20260;-70
2023/03/03 14:47:22;;;;;;;0.10;0.10;;;1.80;99.90;230.40;231737.00;;;;5023863;28;20279;-70
2023/03/03 14:49:58;;;;;;;0.20;0.20;;;1.80;99.90;230.40;231737.00;;;;5030783;28;20310;-70
2023/03/03 14:52:29;;;;;;;0.10;0.10;;;1.80;99.90;230.40;231737.00;;;;5032899;28;20633;-70
2023/03/03 14:55:00;;;;;;;0.10;0.10;;;1.80;99.90;230.40;231737.00;;;;5033111;28;20306;-70
2023/03/03 14:57:45;;;;;;;0.10;0.10;;;1.70;99.90;230.40;231737.00;;;;5032830;28;20199;-70
2023/03/03 15:00:32;;;;;;;0.10;0.10;;;1.70;99.90;230.40;231737.00;;;;5048349;28;20222;-70
2023/03/03 15:03:21;;;;;;;0.10;0.10;;;1.80;99.90;230.40;231737.00;;;;5031137;28;20202;-70
2023/03/03 15:05:51;;;;;;;0.10;0.10;;;1.70;99.90;230.40;231737.00;;;;5033026;28;20205;-70
2023/03/03 15:08:32;;;;;;;0.10;0.10;;;1.70;99.90;230.40;231737.00;;;;5033069;28;20191;-72
2023/03/03 15:11:25;;;;;;;0.10;0.10;;;1.70;99.90;230.40;231737.00;;;;5030468;28;20231;-70
2023/03/03 15:13:54;;;;;;;0.10;0.10;;;1.60;99.90;230.40;231737.00;;;;5029809;28;20210;-69
2023/03/03 15:16:31;;;;;;;0.10;0.10;;;1.60;99.90;230.40;231737.00;;;;5034564;28;20199;-69
2023/03/03 15:19:23;;;;;;;0.10;0.10;;;1.60;99.90;230.40;231737.00;;;;5032270;28;20218;-70
2023/03/03 15:22:03;;;;;;;0.10;0.10;;;1.60;99.90;230.40;231737.00;;;;5027442;28;20466;-70
2023/03/03 15:24:41;;;;;;;0.10;0.10;;;1.70;99.90;230.40;231737.00;;;;5032578;28;20662;-71
2023/03/03 15:27:20;;;;;;;0.10;0.10;;;1.70;99.90;230.40;231737.00;;;;5033646;28;20548;-70
2023/03/03 15:30:05;;;;;;;0.10;0.10;;;1.60;99.90;230.40;231737.00;;;;5033800;28;20211;-71
2023/03/03 15:32:46;;;;;;;0.10;0.10;;;1.60;99.90;230.40;231737.00;;;;5035019;28;20574;-70
2023/03/03 15:35:36;;;;;;;0.10;0.10;;;1.60;99.90;230.40;231737.00;;;;5026800;28;20199;-70
2023/03/03 15:38:24;;;;;;;0.10;0.10;;;1.70;99.90;230.40;231737.00;;;;5035424;28;20203;-70
2023/03/03 15:41:03;;;;;;;0.10;0.10;;;1.70;99.90;230.40;231737.00;;;;5030803;28;20214;-70
2023/03/03 15:43:39;;;;;;;0.10;0.10;;;1.70;99.90;230.40;231737.00;;;;5036995;28;20213;-70
2023/03/03 15:46:24;;;;;;;0.10;0.10;;;1.70;99.90;230.40;231737.00;;;;5035837;28;20214;-70
2023/03/03 15:49:13;;;;;;;0.10;0.10;;;1.70;99.90;230.40;231737.00;;;;5027145;28;20936;-70
2023/03/03 15:52:00;;;;;;;0.15;0.15;;;1.50;99.90;230.40;231737.00;;;;5037117;28;20286;-69
2023/03/03 15:54:42;;;;;;;0.20;0.20;;;1.50;99.90;230.40;231737.00;;;;5036330;28;20205;-69
2023/03/03 15:57:25;;;;;;;0.10;0.10;;;1.50;99.90;230.40;231737.00;;;;5030885;28;20213;-69
2023/03/03 16:00:21;;;;;;;0.20;0.20;;;1.50;99.90;230.40;231737.00;;;;5024631;28;20737;-69
2023/03/03 16:02:55;;;;;;;0.10;0.10;;;1.50;99.90;230.40;231737.00;;;;5035522;28;20207;-69
2023/03/03 16:05:33;;;;;;;0.10;0.10;;;1.50;99.90;230.40;231737.00;;;;5030375;28;20191;-70
2023/03/03 16:08:12;;;;;;;0.10;0.10;;;1.40;99.90;230.40;231737.00;;;;5033667;28;20725;-69
2023/03/03 16:10:55;;;;;;;0.10;0.10;;;1.40;99.90;230.40;231737.00;;;;5030776;28;20296;-70
2023/03/03 16:13:42;;;;;;;0.10;0.10;;;1.30;99.90;230.40;231737.00;;;;5030803;28;20245;-69
2023/03/03 16:16:25;;;;;;;0.10;0.10;;;1.30;99.90;230.40;231737.00;;;;5033587;28;20681;-70
2023/03/03 16:19:11;;;;;;;0.10;0.10;;;1.30;99.90;230.40;231737.00;;;;5027646;28;20635;-69
2023/03/03 16:22:24;;;;;;;0.10;0.10;;;1.40;99.90;230.40;231737.00;;;;5030857;28;20187;-71
2023/03/03 16:25:14;;;;;;;0.10;0.10;;;1.40;99.90;230.40;231737.00;;;;5021188;28;20686;-71
2023/03/03 16:27:52;;;;;;;0.20;0.20;;;1.40;99.90;230.40;231737.00;;;;5034703;28;20195;-72
2023/03/03 16:30:31;;;;;;;0.10;0.10;;;1.40;99.90;230.40;231737.00;;;;5028720;28;20685;-70
2023/03/03 16:33:15;;;;;;;0.20;0.20;;;1.40;99.90;230.40;231737.00;;;;5038715;28;20272;-70
2023/03/03 16:35:51;;;;;;;0.10;0.10;;;1.40;99.90;230.40;231737.00;;;;5039931;28;20198;-70
2023/03/03 16:38:29;;;;;;;0.10;0.10;;;1.40;99.90;230.40;231737.00;;;;5028337;28;20190;-70
2023/03/03 16:41:00;;;;;;;0.10;0.10;;;1.30;99.90;230.40;231737.00;;;;5034380;28;20233;-70
2023/03/03 16:43:43;;;;;;;0.15;0.15;;;1.30;99.90;230.40;231737.00;;;;5037312;28;20217;-70
2023/03/03 16:46:31;;;;;;;0.10;0.10;;;1.20;99.90;230.40;231737.00;;;;5034970;28;20199;-70
2023/03/03 16:49:08;;;;;;;0.10;0.10;;;1.10;99.90;230.40;231737.00;;;;5034688;28;20317;-70
2023/03/03 16:51:49;;;;;;;0.10;0.10;;;1.10;99.90;230.40;231737.00;;;;5036480;28;20226;-70
2023/03/03 16:54:34;;;;;;;0.10;0.10;;;1.10;99.90;230.40;231737.00;;;;5036402;28;20260;-70
2023/03/03 16:57:16;;;;;;;0.10;0.10;;;1.20;99.90;230.40;231737.00;;;;5034237;28;20191;-70
2023/03/03 16:59:55;;;;;;;0.10;0.10;;;1.20;99.90;230.40;231737.00;;;;5039954;28;20215;-70
2023/03/03 17:02:55;;;;;;;0.10;0.10;;;1.30;99.90;230.40;231737.00;;;;5034616;28;20256;-70
2023/03/03 17:05:39;;;;;;;0.10;0.10;;;1.40;99.90;230.40;231737.00;;;;5029198;28;20599;-70
2023/03/03 17:08:26;;;;;;;0.10;0.10;;;1.30;99.90;230.40;231737.00;;;;5035005;28;20261;-70
2023/03/03 17:11:03;;;;;;;0.10;0.10;;;1.30;99.90;230.40;231737.00;;;;5035428;28;20222;-71
2023/03/03 17:14:03;;;;;;;0.10;0.10;;;1.40;99.90;230.40;231737.00;;;;5026734;28;20230;-70
2023/03/03 17:16:47;;;;;;;0.13;0.13;;;1.40;99.90;230.40;231737.00;;;;5026958;28;20195;-70
2023/03/03 17:19:39;;;;;;;0.10;0.10;;;1.30;99.90;230.40;231737.00;;;;5033576;28;20430;-70
2023/03/03 17:22:19;;;;;;;0.10;0.10;;;1.30;99.90;230.40;231737.00;;;;5030486;28;20210;-70
2023/03/03 17:25:02;;;;;;;0.10;0.10;;;1.40;99.90;230.40;231737.00;;;;5033413;28;20682;-70
2023/03/03 17:27:52;;;;;;;0.15;0.15;;;1.40;99.90;230.40;231737.00;;;;5033061;28;20677;-70
2023/03/03 17:30:26;;;;;;;0.10;0.10;;;1.30;99.90;230.40;231737.00;;;;5028883;28;20226;-70
2023/03/03 17:33:34;;;;;;;0.10;0.10;;;1.30;99.90;230.40;231737.00;;;;5032846;28;20198;-71
2023/03/03 17:36:28;;;;;;;0.10;0.10;;;1.40;99.90;230.40;231737.00;;;;5031347;28;20666;-69
2023/03/03 17:39:26;;;;;;;0.10;0.10;;;1.30;99.90;230.40;231737.00;;;;5034454;28;20564;-70
2023/03/03 17:42:09;;;;;;;0.10;0.10;;;1.30;99.90;230.40;231737.00;;;;5029654;28;20211;-70
2023/03/03 17:44:49;;;;;;;0.17;0.17;;;1.30;99.90;230.40;231737.00;;;;5029009;28;20294;-70
2023/03/03 17:47:34;;;;;;;0.10;0.10;;;1.20;99.90;230.40;231737.00;;;;5028836;28;20261;-70
2023/03/03 17:50:23;;;;;;;0.10;0.10;;;1.20;99.90;230.40;231737.00;;;;5032387;28;20227;-70
2023/03/03 17:53:19;;;;;;;0.20;0.20;;;1.20;99.90;230.40;231737.00;;;;5032498;28;20261;-70
2023/03/03 17:56:14;;;;;;;0.10;0.10;;;1.20;99.90;230.40;231737.00;;;;5037044;28;20655;-70
2023/03/03 17:59:40;;;;;;;0.20;0.20;;;1.20;99.90;230.40;231737.00;;;;5025663;28;20219;-70
2023/03/03 18:02:52;;;;;;;0.17;0.17;;;1.20;99.90;230.40;231737.00;;;;5034338;28;20215;-70
2023/03/03 18:06:08;;;;;;;0.10;0.10;;;1.30;99.90;230.40;231737.00;;;;5046783;28;20226;-69
2023/03/03 18:08:56;;;;;;;0.10;0.10;;;1.20;99.90;230.40;231737.00;;;;5029889;28;20215;-70
2023/03/03 18:11:58;;;;;;;0.17;0.17;;;1.20;99.90;230.40;231737.00;;;;5028884;28;20218;-70
2023/03/03 18:15:05;;;;;;;0.10;0.10;;;1.20;99.90;230.40;231737.00;;;;5024925;28;20199;-70
2023/03/03 18:17:51;;;;;;;0.10;0.10;;;1.10;99.90;230.40;231737.00;;;;5033302;28;20234;-70
2023/03/03 18:20:50;;;;;;;0.10;0.10;;;1.20;99.90;230.40;231737.00;;;;5031493;28;20214;-71
2023/03/03 18:23:43;;;;;;;0.10;0.10;;;1.20;99.90;230.40;231737.00;;;;5029511;28;20614;-70
2023/03/03 18:26:36;;;;;;;0.10;0.10;;;1.30;99.90;230.40;231737.00;;;;5033399;28;20196;-70
2023/03/03 18:29:21;;;;;;;0.10;0.10;;;1.20;99.90;230.40;231737.00;;;;5035977;28;20233;-70
2023/03/03 18:32:19;;;;;;;0.10;0.10;;;1.20;99.90;230.40;231737.00;;;;5035224;28;20632;-71
2023/03/03 18:34:47;;;;;;;0.10;0.10;;;1.20;99.90;230.40;231737.00;;;;5031679;28;20218;-71
2023/03/03 18:37:39;;;;;;;0.10;0.10;;;1.20;99.90;230.40;231737.00;;;;5034813;28;20195;-70
2023/03/03 18:40:31;;;;;;;0.10;0.10;;;1.20;99.90;230.40;231737.00;;;;5035145;28;20281;-70
2023/03/03 18:42:59;;;;;;;0.10;0.10;;;1.30;99.90;230.40;231737.00;;;;5025766;28;20211;-70
2023/03/03 18:45:49;;;;;;;0.10;0.10;;;1.40;99.90;230.40;231737.00;;;;5031563;28;20658;-70
2023/03/03 18:48:20;;;;;;;0.10;0.10;;;1.40;99.90;230.40;231737.00;;;;5041279;28;20218;-70
2023/03/03 18:50:51;;;;;;;0.20;0.20;;;1.40;99.90;230.40;231737.00;;;;5033715;28;20215;-72
2023/03/03 18:53:26;;;;;;;0.10;0.10;;;1.40;99.90;230.40;231737.00;;;;5033854;28;20721;-70
2023/03/03 18:55:56;;;;;;;0.20;0.20;;;1.30;99.90;230.40;231737.00;;;;5033210;28;20565;-70
2023/03/03 18:58:39;;;;;;;0.10;0.10;;;1.20;99.90;230.40;231737.00;;;;5028491;28;20196;-71
2023/03/03 19:01:41;;;;;;;0.10;0.10;;;1.30;99.90;230.40;231737.00;;;;5033279;28;20210;-71
2023/03/03 19:04:22;;;;;;;0.10;0.10;;;1.30;99.90;230.40;231737.00;;;;5032845;28;20268;-70